Time;durP1;ratioP1;P1;durP2;ratioP2;P2;SDS_P1;SDS_P2;PMS_P1;PMS_P2;Temp;Humidity;BMP_temperature;BMP_pressure;BME280_temperature;BME280_humidity;BME280_pressure;Samples;Min_cycle;Max_cycle;Signal;HPM_P1;HPM_P2
2023/12/19 00:01:20;;;;;;;34.43;9.47;;;4.20;99.90;;;;;;5058681;28;20161;-82
2023/12/19 00:03:46;;;;;;;27.47;8.40;;;4.20;99.90;;;;;;5040617;28;20443;-81
2023/12/19 00:06:12;;;;;;;30.07;9.27;;;4.30;99.90;;;;;;5040799;28;20219;-81
2023/12/19 00:08:38;;;;;;;28.50;7.87;;;4.30;99.90;;;;;;5058612;28;20252;-81
2023/12/19 00:11:03;;;;;;;30.20;9.20;;;4.20;99.90;;;;;;5040414;28;20589;-81
2023/12/19 00:13:30;;;;;;;27.00;7.53;;;4.30;99.90;;;;;;5040485;28;20161;-81
2023/12/19 00:15:56;;;;;;;26.85;7.45;;;4.30;99.90;;;;;;5040940;28;20447;-81
2023/12/19 00:18:22;;;;;;;27.87;7.60;;;4.20;99.90;;;;;;5057770;28;20173;-81
2023/12/19 00:20:47;;;;;;;27.00;7.40;;;4.30;99.90;;;;;;5058435;28;20166;-81
2023/12/19 00:23:13;;;;;;;27.73;8.13;;;4.30;99.90;;;;;;5040847;28;20188;-81
2023/12/19 00:25:38;;;;;;;27.37;7.17;;;4.30;99.90;;;;;;5040423;28;20193;-81
2023/12/19 00:28:04;;;;;;;27.57;7.93;;;4.30;99.90;;;;;;5058346;28;20172;-81
2023/12/19 00:30:30;;;;;;;27.30;7.03;;;4.30;99.90;;;;;;5040486;28;20205;-81
2023/12/19 00:32:56;;;;;;;28.07;7.30;;;4.30;99.90;;;;;;5058353;28;20196;-81
2023/12/19 00:35:22;;;;;;;28.70;7.15;;;4.30;99.90;;;;;;5039698;28;20189;-81
2023/12/19 00:37:48;;;;;;;27.10;7.57;;;4.30;99.90;;;;;;5040380;28;20275;-81
2023/12/19 00:40:14;;;;;;;27.73;7.93;;;4.30;99.90;;;;;;5040110;28;20216;-81
2023/12/19 00:42:41;;;;;;;28.50;7.07;;;4.30;99.90;;;;;;5058031;28;20200;-81
2023/12/19 00:45:07;;;;;;;27.98;7.28;;;4.40;99.90;;;;;;5040992;28;20788;-81
2023/12/19 00:47:33;;;;;;;27.77;7.22;;;4.40;99.90;;;;;;5058144;28;20194;-81
2023/12/19 00:49:58;;;;;;;26.93;6.93;;;4.40;99.90;;;;;;5039734;28;20165;-81
2023/12/19 00:52:27;;;;;;;29.60;8.00;;;4.40;99.90;;;;;;5057590;28;20277;-81
2023/12/19 00:54:53;;;;;;;26.38;6.57;;;4.40;99.90;;;;;;5039275;28;20185;-81
2023/12/19 00:57:18;;;;;;;26.47;7.27;;;4.40;99.90;;;;;;5057498;28;20171;-81
2023/12/19 00:59:44;;;;;;;31.43;7.63;;;4.50;99.90;;;;;;5057861;28;20173;-81
2023/12/19 01:02:10;;;;;;;27.47;7.47;;;4.40;99.90;;;;;;5039413;28;20577;-81
2023/12/19 01:04:36;;;;;;;26.83;7.17;;;4.50;99.90;;;;;;5039609;28;20189;-81
2023/12/19 01:07:01;;;;;;;27.83;7.18;;;4.50;99.90;;;;;;5039494;28;20181;-81
2023/12/19 01:09:27;;;;;;;29.17;7.47;;;4.50;99.90;;;;;;5057752;28;20169;-81
2023/12/19 01:11:53;;;;;;;26.50;6.40;;;4.50;99.90;;;;;;5057016;28;20200;-81
2023/12/19 01:14:18;;;;;;;27.77;8.17;;;4.50;99.90;;;;;;5039475;28;20211;-80
2023/12/19 01:16:44;;;;;;;29.60;6.90;;;4.50;99.90;;;;;;5057067;28;20164;-80
2023/12/19 01:19:10;;;;;;;27.13;7.23;;;4.50;99.90;;;;;;5039046;28;20169;-81
2023/12/19 01:21:36;;;;;;;26.47;7.00;;;4.50;99.90;;;;;;5039423;28;20260;-81
2023/12/19 01:24:03;;;;;;;27.10;7.15;;;4.60;99.90;;;;;;5057311;28;20185;-81
2023/12/19 01:26:30;;;;;;;26.58;7.40;;;4.50;99.90;;;;;;5057070;28;20161;-81
2023/12/19 01:28:56;;;;;;;27.90;7.40;;;4.60;99.90;;;;;;5057610;28;20165;-82
2023/12/19 01:31:21;;;;;;;29.77;8.33;;;4.60;99.90;;;;;;5039518;28;20570;-82
2023/12/19 01:33:47;;;;;;;31.93;6.27;;;4.60;99.90;;;;;;5057811;28;20573;-81
2023/12/19 01:36:13;;;;;;;28.17;8.03;;;4.70;99.90;;;;;;5057497;28;20177;-82
2023/12/19 01:38:38;;;;;;;25.70;6.80;;;4.70;99.90;;;;;;5040349;28;20211;-82
2023/12/19 01:41:04;;;;;;;26.47;7.03;;;4.70;99.90;;;;;;5057532;28;20291;-82
2023/12/19 01:43:30;;;;;;;25.10;6.43;;;4.70;99.90;;;;;;5057808;28;20161;-82
2023/12/19 01:45:55;;;;;;;26.80;6.23;;;4.70;99.90;;;;;;5057307;28;20181;-82
2023/12/19 01:48:25;;;;;;;26.90;6.10;;;4.70;99.90;;;;;;5057481;28;20161;-82
2023/12/19 01:50:51;;;;;;;27.15;6.05;;;4.80;99.90;;;;;;5057616;28;20513;-82
2023/12/19 01:53:18;;;;;;;25.60;6.23;;;4.80;99.90;;;;;;5057399;28;20384;-82
2023/12/19 01:55:44;;;;;;;27.00;6.25;;;4.80;99.90;;;;;;5039677;28;20204;-82
2023/12/19 01:58:10;;;;;;;27.17;5.60;;;4.80;99.90;;;;;;5039440;28;20639;-81
2023/12/19 02:00:37;;;;;;;28.52;6.72;;;4.80;99.90;;;;;;5057095;28;20212;-81
2023/12/19 02:03:04;;;;;;;25.70;5.57;;;4.90;99.90;;;;;;5038885;28;20180;-82
2023/12/19 02:05:32;;;;;;;24.77;5.32;;;4.90;99.90;;;;;;5056771;28;20192;-81
2023/12/19 02:07:58;;;;;;;29.50;7.05;;;5.00;99.90;;;;;;5039005;28;20240;-82
2023/12/19 02:10:25;;;;;;;26.20;5.75;;;5.00;99.90;;;;;;5057207;28;20165;-82
2023/12/19 02:12:51;;;;;;;27.17;5.97;;;5.00;99.90;;;;;;5056657;28;20188;-82
2023/12/19 02:15:17;;;;;;;27.13;6.17;;;5.00;99.90;;;;;;5039468;28;20240;-82
2023/12/19 02:17:42;;;;;;;25.20;5.23;;;4.90;99.90;;;;;;5056939;28;20627;-81
2023/12/19 02:20:08;;;;;;;25.47;5.27;;;5.00;99.90;;;;;;5038834;28;20704;-81
2023/12/19 02:22:34;;;;;;;28.03;5.93;;;5.00;99.90;;;;;;5039467;28;20690;-81
2023/12/19 02:24:59;;;;;;;27.27;6.57;;;5.00;99.90;;;;;;5056991;28;20456;-81
2023/12/19 02:27:26;;;;;;;27.50;6.13;;;5.00;99.90;;;;;;5056668;28;20285;-81
2023/12/19 02:29:51;;;;;;;26.95;5.50;;;5.00;99.90;;;;;;5057127;28;20612;-81
2023/12/19 02:32:17;;;;;;;31.27;7.00;;;5.00;99.90;;;;;;5057458;28;20223;-81
2023/12/19 02:34:43;;;;;;;28.50;6.37;;;5.00;99.90;;;;;;5038848;28;20271;-81
2023/12/19 02:37:08;;;;;;;25.77;5.80;;;5.00;99.90;;;;;;5056484;28;20423;-81
2023/12/19 02:39:34;;;;;;;26.57;5.90;;;5.00;99.90;;;;;;5056513;28;20577;-81
2023/12/19 02:42:00;;;;;;;26.40;5.70;;;5.00;99.90;;;;;;5039702;28;20169;-81
2023/12/19 02:44:25;;;;;;;25.33;5.70;;;5.00;99.90;;;;;;5059921;28;20196;-81
2023/12/19 02:46:51;;;;;;;25.77;5.43;;;5.10;99.90;;;;;;5060123;28;20165;-81
2023/12/19 02:49:17;;;;;;;27.20;7.07;;;5.10;99.90;;;;;;5041961;28;20176;-81
2023/12/19 02:51:43;;;;;;;28.90;7.97;;;5.10;99.90;;;;;;5041758;28;20263;-81
2023/12/19 02:54:09;;;;;;;30.60;8.27;;;5.00;99.90;;;;;;5060318;28;20178;-81
2023/12/19 02:56:34;;;;;;;29.67;7.13;;;5.00;99.90;;;;;;5059745;28;20172;-81
2023/12/19 02:59:01;;;;;;;32.43;7.70;;;5.00;99.90;;;;;;5059916;28;20408;-81
2023/12/19 03:01:27;;;;;;;28.42;7.05;;;5.00;99.90;;;;;;5060342;28;20172;-81
2023/12/19 03:03:52;;;;;;;26.87;6.40;;;5.00;99.90;;;;;;5042418;28;20173;-81
2023/12/19 03:06:18;;;;;;;27.97;5.77;;;5.00;99.90;;;;;;5060172;28;20200;-81
2023/12/19 03:08:45;;;;;;;27.60;5.70;;;5.10;99.90;;;;;;5059928;28;20176;-81
2023/12/19 03:11:14;;;;;;;27.88;5.25;;;5.10;99.90;;;;;;5059626;28;20412;-81
2023/12/19 03:13:40;;;;;;;26.45;5.25;;;5.10;99.90;;;;;;5060025;28;20211;-81
2023/12/19 03:16:06;;;;;;;25.47;4.70;;;5.20;99.90;;;;;;5059876;28;20256;-81
2023/12/19 03:18:32;;;;;;;27.30;5.50;;;5.20;99.90;;;;;;5059887;28;20158;-81
2023/12/19 03:20:57;;;;;;;28.13;5.50;;;5.20;99.90;;;;;;5042031;28;20520;-81
2023/12/19 03:23:24;;;;;;;26.40;4.37;;;5.20;99.90;;;;;;5059646;28;20197;-81
2023/12/19 03:25:49;;;;;;;26.27;4.72;;;5.20;99.90;;;;;;5041745;28;20420;-81
2023/12/19 03:28:15;;;;;;;26.40;4.90;;;5.30;99.90;;;;;;5059105;28;20200;-81
2023/12/19 03:30:42;;;;;;;27.10;4.90;;;5.30;99.90;;;;;;5059579;28;20168;-81
2023/12/19 03:33:07;;;;;;;30.42;5.25;;;5.30;99.90;;;;;;5059419;28;20220;-81
2023/12/19 03:35:33;;;;;;;26.73;4.80;;;5.30;99.90;;;;;;5059095;28;20196;-81
2023/12/19 03:38:00;;;;;;;26.00;4.13;;;5.30;99.90;;;;;;5041186;28;20647;-81
2023/12/19 03:40:25;;;;;;;25.45;4.40;;;5.30;99.90;;;;;;5059125;28;20173;-81
2023/12/19 03:42:51;;;;;;;26.40;4.50;;;5.30;99.90;;;;;;5059024;28;20199;-81
2023/12/19 03:45:20;;;;;;;26.93;4.83;;;5.40;99.90;;;;;;5058831;28;20570;-81
2023/12/19 03:47:46;;;;;;;25.13;3.30;;;5.40;99.90;;;;;;5059074;28;20173;-81
2023/12/19 03:50:11;;;;;;;25.50;4.30;;;5.40;99.90;;;;;;5059260;28;20313;-82
2023/12/19 03:52:37;;;;;;;26.13;4.27;;;5.30;99.90;;;;;;5041241;28;20246;-82
2023/12/19 03:55:03;;;;;;;24.53;3.93;;;5.40;99.90;;;;;;5059409;28;20269;-82
2023/12/19 03:57:29;;;;;;;26.65;4.35;;;5.40;99.90;;;;;;5042271;28;20165;-82
2023/12/19 03:59:55;;;;;;;25.37;4.40;;;5.50;99.90;;;;;;5059999;28;20191;-82
2023/12/19 04:02:21;;;;;;;24.50;4.07;;;5.50;99.90;;;;;;5059316;28;20166;-82
2023/12/19 04:04:46;;;;;;;24.50;3.40;;;5.50;99.90;;;;;;5059008;28;20454;-82
2023/12/19 04:07:12;;;;;;;25.40;3.57;;;5.50;99.90;;;;;;5059588;28;20208;-82
2023/12/19 04:09:38;;;;;;;23.93;3.37;;;5.50;99.90;;;;;;5059062;28;20169;-82
2023/12/19 04:12:06;;;;;;;23.50;2.93;;;5.50;99.90;;;;;;5041234;28;20451;-82
2023/12/19 04:14:32;;;;;;;24.00;3.30;;;5.50;99.90;;;;;;5059511;28;20181;-81
2023/12/19 04:16:58;;;;;;;25.45;3.70;;;5.50;99.90;;;;;;5058939;28;20157;-81
2023/12/19 04:19:24;;;;;;;24.40;3.83;;;5.50;99.90;;;;;;5059079;28;20228;-81
2023/12/19 04:21:50;;;;;;;24.50;3.10;;;5.50;99.90;;;;;;5040364;28;20932;-82
2023/12/19 04:24:16;;;;;;;23.63;3.30;;;5.50;99.90;;;;;;5040669;28;20184;-81
2023/12/19 04:26:42;;;;;;;25.40;3.30;;;5.60;99.90;;;;;;5058720;28;20165;-82
2023/12/19 04:29:08;;;;;;;24.73;3.50;;;5.60;99.90;;;;;;5058338;28;20187;-81
2023/12/19 04:31:34;;;;;;;25.27;4.10;;;5.60;99.90;;;;;;5057986;28;20197;-81
2023/12/19 04:34:00;;;;;;;25.37;4.53;;;5.60;99.90;;;;;;5058012;28;20168;-81
2023/12/19 04:36:25;;;;;;;25.97;4.20;;;5.50;99.90;;;;;;5040185;28;20208;-81
2023/12/19 04:38:52;;;;;;;27.67;4.73;;;5.50;99.90;;;;;;5058037;28;20415;-81
2023/12/19 04:41:17;;;;;;;24.23;4.20;;;5.50;99.90;;;;;;5040407;28;20169;-81
2023/12/19 04:43:43;;;;;;;26.77;3.80;;;5.50;99.90;;;;;;5058741;28;20199;-81
2023/12/19 04:46:09;;;;;;;25.37;4.83;;;5.40;99.90;;;;;;5058000;28;20158;-81
2023/12/19 04:48:34;;;;;;;24.50;4.40;;;5.40;99.90;;;;;;5040357;28;20466;-81
2023/12/19 04:51:00;;;;;;;25.37;4.20;;;5.40;99.90;;;;;;5058092;28;20185;-81
2023/12/19 04:53:26;;;;;;;26.60;4.97;;;5.40;99.90;;;;;;5040167;28;20165;-81
2023/12/19 04:55:52;;;;;;;23.63;3.60;;;5.40;99.90;;;;;;5058133;28;20186;-81
2023/12/19 04:58:20;;;;;;;23.00;3.17;;;5.40;99.90;;;;;;5039883;28;20407;-81
2023/12/19 05:00:47;;;;;;;26.73;4.35;;;5.40;99.90;;;;;;5057822;28;20161;-82
2023/12/19 05:03:14;;;;;;;24.48;3.85;;;5.40;99.90;;;;;;5039876;28;20169;-81
2023/12/19 05:05:39;;;;;;;24.27;4.15;;;5.40;99.90;;;;;;5038408;28;20192;-81
2023/12/19 05:08:05;;;;;;;25.30;3.60;;;5.40;99.90;;;;;;5057564;28;20649;-81
2023/12/19 05:10:31;;;;;;;24.07;3.87;;;5.50;99.90;;;;;;5057687;28;20184;-81
2023/12/19 05:12:56;;;;;;;23.40;3.50;;;5.50;99.90;;;;;;5057577;28;20220;-81
2023/12/19 05:15:22;;;;;;;26.90;4.37;;;5.50;99.90;;;;;;5057755;28;20231;-81
2023/12/19 05:17:48;;;;;;;25.17;4.50;;;5.40;99.90;;;;;;5039550;28;20161;-82
2023/12/19 05:20:13;;;;;;;24.83;4.20;;;5.50;99.90;;;;;;5057746;28;20165;-81
2023/12/19 05:22:39;;;;;;;24.30;3.77;;;5.50;99.90;;;;;;5057210;28;20165;-81
2023/12/19 05:25:06;;;;;;;25.40;3.70;;;5.40;99.90;;;;;;5057921;28;20264;-81
2023/12/19 05:27:32;;;;;;;25.70;4.30;;;5.40;99.90;;;;;;5039628;28;20165;-81
2023/12/19 05:29:57;;;;;;;28.07;4.70;;;5.40;99.90;;;;;;5057475;28;20219;-81
2023/12/19 05:32:23;;;;;;;28.17;4.80;;;5.40;99.90;;;;;;5057831;28;20220;-81
2023/12/19 05:34:48;;;;;;;28.47;4.10;;;5.40;99.90;;;;;;5057685;28;20180;-81
2023/12/19 05:37:14;;;;;;;27.00;3.70;;;5.40;99.90;;;;;;5057507;28;20177;-81
2023/12/19 05:39:42;;;;;;;27.17;3.70;;;5.50;99.90;;;;;;5057577;28;20189;-81
2023/12/19 05:42:08;;;;;;;26.10;3.85;;;5.50;99.90;;;;;;5057086;28;20165;-81
2023/12/19 05:44:37;;;;;;;32.53;4.25;;;5.50;99.90;;;;;;5056672;28;20192;-81
2023/12/19 05:47:03;;;;;;;24.98;3.00;;;5.50;99.90;;;;;;5057485;28;20171;-81
2023/12/19 05:49:29;;;;;;;27.08;3.78;;;5.60;99.90;;;;;;5057700;28;20174;-81
2023/12/19 05:51:55;;;;;;;28.73;4.00;;;5.60;99.90;;;;;;5057141;28;20188;-81
2023/12/19 05:54:23;;;;;;;25.63;3.40;;;5.60;99.90;;;;;;5057458;28;20546;-81
2023/12/19 05:56:49;;;;;;;26.23;2.85;;;5.60;99.90;;;;;;5057193;28;20161;-82
2023/12/19 05:59:14;;;;;;;26.50;3.13;;;5.70;99.90;;;;;;5039216;28;20169;-81
2023/12/19 06:01:43;;;;;;;25.87;2.93;;;5.70;99.90;;;;;;5056629;28;20676;-81
2023/12/19 06:04:09;;;;;;;26.15;3.03;;;5.70;99.90;;;;;;5039129;28;20232;-81
2023/12/19 06:06:40;;;;;;;25.77;2.30;;;5.70;99.90;;;;;;5056650;28;20169;-80
2023/12/19 06:09:05;;;;;;;26.13;2.75;;;5.70;99.90;;;;;;5057341;28;20150;-81
2023/12/19 06:11:31;;;;;;;26.27;2.63;;;5.80;99.90;;;;;;5057199;28;20688;-82
2023/12/19 06:13:57;;;;;;;27.40;3.27;;;5.80;99.90;;;;;;5056766;28;20533;-82
2023/12/19 06:16:22;;;;;;;27.47;3.10;;;5.80;99.90;;;;;;5057347;28;20239;-82
2023/12/19 06:18:48;;;;;;;27.67;2.97;;;5.90;99.90;;;;;;5061300;28;20165;-81
2023/12/19 06:21:14;;;;;;;25.30;2.37;;;5.90;99.90;;;;;;5061047;28;20160;-81
2023/12/19 06:23:39;;;;;;;30.03;2.90;;;6.00;99.90;;;;;;5061009;28;20222;-81
2023/12/19 06:26:06;;;;;;;26.40;2.37;;;6.00;99.90;;;;;;5060442;28;20185;-81
2023/12/19 06:28:32;;;;;;;27.88;2.50;;;6.00;99.90;;;;;;5060982;28;20384;-81
2023/12/19 06:30:58;;;;;;;26.33;2.38;;;6.10;99.90;;;;;;5061240;28;20165;-82
2023/12/19 06:33:24;;;;;;;27.67;2.70;;;6.10;99.90;;;;;;5043026;28;20212;-81
2023/12/19 06:35:53;;;;;;;26.27;2.37;;;6.10;99.90;;;;;;5060305;28;20255;-81
2023/12/19 06:38:19;;;;;;;28.20;2.60;;;6.10;99.90;;;;;;5061135;28;20150;-81
2023/12/19 06:40:45;;;;;;;26.97;2.90;;;6.20;99.90;;;;;;5060709;28;20164;-81
2023/12/19 06:43:11;;;;;;;27.60;3.20;;;6.20;99.90;;;;;;5061141;28;20585;-81
2023/12/19 06:45:37;;;;;;;27.83;2.97;;;6.20;99.90;;;;;;5060338;28;20208;-81
2023/12/19 06:48:03;;;;;;;28.30;3.23;;;6.20;99.90;;;;;;5061157;28;20195;-81
2023/12/19 06:50:29;;;;;;;28.38;3.28;;;6.20;99.90;;;;;;5060359;28;20453;-81
2023/12/19 06:52:55;;;;;;;28.37;3.20;;;6.20;99.90;;;;;;5060921;28;20601;-81
2023/12/19 06:55:21;;;;;;;27.23;2.87;;;6.20;99.90;;;;;;5061206;28;20177;-82
2023/12/19 06:57:47;;;;;;;33.78;2.40;;;6.20;99.90;;;;;;5042554;28;20589;-82
2023/12/19 07:00:13;;;;;;;26.57;2.50;;;6.30;99.90;;;;;;5060698;28;20162;-82
2023/12/19 07:02:39;;;;;;;25.23;2.03;;;6.30;99.90;;;;;;5042737;28;20974;-82
2023/12/19 07:05:05;;;;;;;26.58;2.90;;;6.40;99.90;;;;;;5060394;28;20189;-81
2023/12/19 07:07:31;;;;;;;25.27;2.53;;;6.40;99.90;;;;;;5042421;28;20239;-82
2023/12/19 07:09:56;;;;;;;25.80;2.10;;;6.40;99.90;;;;;;5059862;28;20411;-81
2023/12/19 07:12:22;;;;;;;25.87;2.50;;;6.40;99.90;;;;;;5059988;28;20488;-81
2023/12/19 07:14:48;;;;;;;25.83;2.10;;;6.40;99.90;;;;;;5042201;28;20193;-81
2023/12/19 07:17:13;;;;;;;25.47;2.30;;;6.50;99.90;;;;;;5060050;28;20164;-81
2023/12/19 07:19:43;;;;;;;25.77;2.30;;;6.50;99.90;;;;;;5060224;28;20157;-81
2023/12/19 07:22:09;;;;;;;24.55;1.67;;;6.50;99.90;;;;;;5059607;28;20165;-81
2023/12/19 07:24:34;;;;;;;25.67;2.00;;;6.50;99.90;;;;;;5041596;28;20189;-81
2023/12/19 07:27:00;;;;;;;26.10;2.07;;;6.60;99.90;;;;;;5059449;28;20169;-81
2023/12/19 07:29:26;;;;;;;26.67;1.97;;;6.60;99.90;;;;;;5041718;28;20173;-81
2023/12/19 07:31:52;;;;;;;25.77;1.80;;;6.70;99.90;;;;;;5059575;28;20470;-81
2023/12/19 07:34:18;;;;;;;25.10;1.97;;;6.70;99.90;;;;;;5059734;28;20420;-81
2023/12/19 07:36:45;;;;;;;26.20;1.97;;;6.70;99.90;;;;;;5041057;28;20234;-81
2023/12/19 07:39:11;;;;;;;25.13;1.88;;;6.80;99.90;;;;;;5041339;28;20412;-81
2023/12/19 07:41:37;;;;;;;26.38;2.25;;;6.70;99.90;;;;;;5059171;28;20179;-81
2023/12/19 07:44:09;;;;;;;24.53;1.93;;;6.70;99.90;;;;;;5059312;28;20216;-81
2023/12/19 07:46:38;;;;;;;24.67;2.22;;;6.70;99.90;;;;;;5059522;28;20176;-81
2023/12/19 07:49:04;;;;;;;25.65;2.05;;;6.70;99.90;;;;;;5058892;28;20169;-81
2023/12/19 07:51:29;;;;;;;25.57;2.27;;;6.70;99.90;;;;;;5059022;28;20231;-81
2023/12/19 07:53:55;;;;;;;24.57;1.80;;;6.80;99.90;;;;;;5058893;28;20165;-81
2023/12/19 07:56:21;;;;;;;25.00;2.13;;;6.80;99.90;;;;;;5041283;28;20161;-80
2023/12/19 07:58:46;;;;;;;23.90;1.80;;;6.80;99.90;;;;;;5059368;28;20411;-81
2023/12/19 08:01:13;;;;;;;23.80;1.73;;;6.80;99.90;;;;;;5059478;28;20161;-81
2023/12/19 08:03:40;;;;;;;24.90;2.10;;;6.80;99.90;;;;;;5059102;28;20157;-81
2023/12/19 08:06:06;;;;;;;24.75;2.10;;;6.80;99.90;;;;;;5040636;28;20190;-81
2023/12/19 08:08:32;;;;;;;24.05;1.95;;;6.80;99.90;;;;;;5041104;28;20193;-81
2023/12/19 08:10:57;;;;;;;27.47;2.00;;;6.80;99.90;;;;;;5040983;28;20257;-80
2023/12/19 08:13:23;;;;;;;23.50;1.87;;;6.80;99.90;;;;;;5058451;28;20451;-81
2023/12/19 08:15:50;;;;;;;24.63;2.13;;;6.80;99.90;;;;;;5040850;28;20192;-80
2023/12/19 08:18:16;;;;;;;26.95;2.45;;;6.80;99.90;;;;;;5040585;28;20166;-80
2023/12/19 08:20:42;;;;;;;24.63;1.80;;;6.90;99.90;;;;;;5040307;28;20576;-80
2023/12/19 08:23:08;;;;;;;24.45;2.17;;;6.90;99.90;;;;;;5040202;28;20207;-80
2023/12/19 08:25:34;;;;;;;24.42;1.80;;;6.90;99.90;;;;;;5058083;28;20204;-80
2023/12/19 08:28:04;;;;;;;26.40;2.53;;;6.90;99.90;;;;;;5040647;28;20173;-80
2023/12/19 08:30:30;;;;;;;23.58;2.10;;;6.90;99.90;;;;;;5040205;28;20410;-80
2023/12/19 08:32:56;;;;;;;23.67;2.42;;;7.00;99.90;;;;;;5058647;28;20268;-80
2023/12/19 08:35:22;;;;;;;30.90;2.15;;;7.00;99.90;;;;;;5057900;28;20177;-80
2023/12/19 08:37:48;;;;;;;24.80;2.47;;;7.00;99.90;;;;;;5058068;28;20207;-80
2023/12/19 08:40:14;;;;;;;25.77;2.08;;;7.00;99.90;;;;;;5057355;28;20856;-81
2023/12/19 08:42:40;;;;;;;24.60;2.47;;;7.00;99.90;;;;;;5058329;28;20166;-82
2023/12/19 08:45:16;;;;;;;23.52;2.00;;;7.00;99.90;;;;;;5058162;28;20181;-81
2023/12/19 08:47:46;;;;;;;23.35;2.33;;;7.10;99.90;;;;;;5058039;28;20634;-80
2023/12/19 08:50:13;;;;;;;23.30;2.30;;;7.10;99.90;;;;;;5058212;28;20192;-80
2023/12/19 08:52:40;;;;;;;24.77;2.50;;;7.10;99.90;;;;;;5039895;28;20193;-80
2023/12/19 08:55:07;;;;;;;24.85;2.70;;;7.20;99.90;;;;;;5057610;28;20177;-80
2023/12/19 08:57:38;;;;;;;23.92;2.10;;;7.20;99.90;;;;;;5057703;28;20215;-80
2023/12/19 09:00:06;;;;;;;23.60;1.75;;;7.20;99.90;;;;;;5057512;28;20181;-81
2023/12/19 09:02:31;;;;;;;23.70;2.00;;;7.20;99.90;;;;;;5040327;28;20187;-80
2023/12/19 09:04:57;;;;;;;23.97;1.77;;;7.20;99.90;;;;;;5057636;28;20177;-80
2023/12/19 09:07:23;;;;;;;23.27;2.37;;;7.30;99.90;;;;;;5039791;28;20227;-80
2023/12/19 09:09:49;;;;;;;23.30;1.87;;;7.30;99.90;;;;;;5057012;28;20232;-80
2023/12/19 09:12:14;;;;;;;23.20;2.40;;;7.30;99.90;;;;;;5039726;28;20287;-80
2023/12/19 09:14:40;;;;;;;25.80;2.40;;;7.40;99.90;;;;;;5057451;28;20188;-80
2023/12/19 09:17:06;;;;;;;22.85;1.90;;;7.40;99.90;;;;;;5057404;28;20723;-80
2023/12/19 09:19:34;;;;;;;25.17;1.83;;;7.40;99.90;;;;;;5057256;28;20165;-80
2023/12/19 09:22:00;;;;;;;25.50;2.47;;;7.40;99.90;;;;;;5056979;28;20166;-80
2023/12/19 09:24:30;;;;;;;22.20;1.70;;;7.50;99.90;;;;;;5057142;28;20780;-80
2023/12/19 09:26:57;;;;;;;22.95;2.00;;;7.50;99.90;;;;;;5039166;28;20177;-80
2023/12/19 09:29:25;;;;;;;23.95;2.38;;;7.50;99.90;;;;;;5057364;28;20204;-81
2023/12/19 09:31:51;;;;;;;24.80;2.05;;;7.50;99.90;;;;;;5057562;28;20276;-80
2023/12/19 09:34:18;;;;;;;26.50;2.28;;;7.50;99.90;;;;;;5057014;28;20189;-81
2023/12/19 09:36:44;;;;;;;23.30;1.75;;;7.50;99.90;;;;;;5039001;28;20279;-80
2023/12/19 09:39:11;;;;;;;22.85;1.60;;;7.50;99.90;;;;;;5056820;28;20166;-80
2023/12/19 09:41:37;;;;;;;23.33;2.08;;;7.60;99.90;;;;;;5038964;28;20519;-80
2023/12/19 09:44:03;;;;;;;23.73;1.87;;;7.50;99.90;;;;;;5039429;28;20211;-80
2023/12/19 09:46:33;;;;;;;23.57;2.10;;;7.50;99.90;;;;;;5039494;28;20762;-80
2023/12/19 09:49:00;;;;;;;23.80;3.35;;;7.60;99.90;;;;;;5038580;28;20472;-80
2023/12/19 09:51:32;;;;;;;25.73;2.10;;;7.60;99.90;;;;;;5055987;28;20169;-80
2023/12/19 09:54:01;;;;;;;23.52;2.03;;;7.60;99.90;;;;;;5056889;28;20240;-80
2023/12/19 09:56:28;;;;;;;25.13;2.08;;;7.70;99.90;;;;;;5038217;28;20173;-80
2023/12/19 09:59:03;;;;;;;23.67;2.53;;;7.70;99.90;;;;;;5038457;28;20642;-80
2023/12/19 10:01:29;;;;;;;32.05;2.35;;;7.70;99.90;;;;;;5056224;28;20165;-80
2023/12/19 10:03:55;;;;;;;23.80;1.90;;;7.80;99.90;;;;;;5038530;28;20176;-80
2023/12/19 10:06:24;;;;;;;23.08;1.63;;;7.80;99.90;;;;;;5056069;28;20939;-80
2023/12/19 10:08:53;;;;;;;22.58;1.50;;;7.80;99.90;;;;;;5038379;28;20201;-80
2023/12/19 10:11:24;;;;;;;23.67;1.92;;;7.80;99.90;;;;;;5055773;28;20172;-80
2023/12/19 10:13:50;;;;;;;25.40;2.05;;;7.80;99.90;;;;;;5056045;28;20224;-80
2023/12/19 10:16:19;;;;;;;22.87;1.80;;;7.90;99.90;;;;;;5056271;28;20184;-80
2023/12/19 10:18:53;;;;;;;28.05;1.77;;;7.80;99.90;;;;;;5056427;28;20169;-80
2023/12/19 10:21:22;;;;;;;24.15;1.50;;;7.90;99.90;;;;;;5038202;28;20161;-80
2023/12/19 10:23:47;;;;;;;25.73;2.08;;;7.90;99.90;;;;;;5056600;28;20162;-80
2023/12/19 10:26:13;;;;;;;23.63;1.87;;;8.00;99.90;;;;;;5056300;28;20286;-80
2023/12/19 10:28:40;;;;;;;25.07;1.80;;;8.00;99.90;;;;;;5056636;28;20228;-80
2023/12/19 10:31:05;;;;;;;23.65;2.20;;;8.00;99.90;;;;;;5038292;28;20169;-81
2023/12/19 10:33:42;;;;;;;23.67;2.10;;;8.00;99.90;;;;;;5056728;28;20554;-80
2023/12/19 10:36:08;;;;;;;28.60;2.35;;;8.00;99.90;;;;;;5038038;28;20263;-81
2023/12/19 10:38:49;;;;;;;25.30;2.05;;;8.00;99.90;;;;;;5038683;28;20228;-80
2023/12/19 10:41:26;;;;;;;22.75;2.08;;;8.00;99.90;;;;;;5022362;28;20248;-80
2023/12/19 10:43:56;;;;;;;24.70;1.73;;;8.00;99.90;;;;;;5038581;28;20618;-80
2023/12/19 10:46:25;;;;;;;22.98;1.77;;;7.90;99.90;;;;;;5055912;28;20166;-80
2023/12/19 10:48:57;;;;;;;25.25;2.00;;;7.90;99.90;;;;;;5038524;28;20173;-80
2023/12/19 10:51:33;;;;;;;24.10;1.90;;;7.90;99.90;;;;;;5056001;28;20550;-80
2023/12/19 10:54:11;;;;;;;25.83;1.60;;;7.90;99.90;;;;;;5038845;28;20175;-81
2023/12/19 10:57:00;;;;;;;24.00;1.80;;;7.90;99.90;;;;;;5038818;28;20534;-81
2023/12/19 10:59:30;;;;;;;23.15;2.00;;;7.90;99.90;;;;;;5038505;28;20192;-80
2023/12/19 11:02:12;;;;;;;24.15;1.88;;;7.90;99.90;;;;;;5038392;28;20183;-81
2023/12/19 11:04:42;;;;;;;27.05;2.45;;;7.90;99.90;;;;;;5042240;28;20215;-81
2023/12/19 11:07:13;;;;;;;32.78;1.98;;;7.90;99.90;;;;;;5042374;28;20634;-82
2023/12/19 11:09:43;;;;;;;30.92;1.95;;;7.90;99.90;;;;;;5060068;28;20163;-80
2023/12/19 11:12:14;;;;;;;23.95;2.00;;;8.00;99.90;;;;;;5042063;28;20242;-81
2023/12/19 11:14:44;;;;;;;25.60;1.70;;;8.00;99.90;;;;;;5059928;28;20188;-81
2023/12/19 11:17:19;;;;;;;26.17;1.65;;;8.00;99.90;;;;;;5042015;28;20173;-80
2023/12/19 11:19:51;;;;;;;23.25;1.70;;;8.00;99.90;;;;;;5040835;28;20169;-79
2023/12/19 11:22:31;;;;;;;23.15;1.67;;;8.10;99.90;;;;;;5058209;28;20288;-80
2023/12/19 11:25:20;;;;;;;22.65;1.95;;;8.10;99.90;;;;;;5058352;28;20181;-80
2023/12/19 11:28:05;;;;;;;21.98;1.77;;;8.10;99.90;;;;;;5058144;28;20145;-80
2023/12/19 11:30:36;;;;;;;24.92;1.98;;;8.10;99.90;;;;;;5040135;28;20546;-80
2023/12/19 11:33:28;;;;;;;23.35;2.10;;;8.10;99.90;;;;;;5039921;28;20189;-80
2023/12/19 11:36:11;;;;;;;23.52;1.95;;;8.10;99.90;;;;;;5058027;28;20241;-81
2023/12/19 11:38:39;;;;;;;23.48;1.92;;;8.10;99.90;;;;;;5058072;28;20618;-79
2023/12/19 11:41:08;;;;;;;24.73;2.30;;;8.10;99.90;;;;;;5058254;28;20245;-81
2023/12/19 11:43:36;;;;;;;26.80;2.40;;;8.10;99.90;;;;;;5040367;28;20180;-80
2023/12/19 11:46:06;;;;;;;29.90;2.50;;;8.10;99.90;;;;;;5058148;28;20181;-79
2023/12/19 11:49:02;;;;;;;29.17;2.90;;;8.10;99.90;;;;;;5057863;28;20165;-81
2023/12/19 11:51:50;;;;;;;27.40;2.35;;;8.20;99.90;;;;;;5054971;28;20177;-80
2023/12/19 11:54:16;;;;;;;25.08;3.20;;;8.20;99.90;;;;;;5039807;28;20360;-80
2023/12/19 11:56:44;;;;;;;24.48;2.63;;;8.20;99.90;;;;;;5039982;28;20161;-80
2023/12/19 11:59:11;;;;;;;24.50;2.60;;;8.20;99.90;;;;;;5057887;28;20294;-80
2023/12/19 12:01:41;;;;;;;26.98;2.17;;;8.20;99.90;;;;;;5040079;28;20169;-80
2023/12/19 12:04:10;;;;;;;24.52;2.30;;;8.20;99.90;;;;;;5040289;28;20185;-80
2023/12/19 12:06:37;;;;;;;23.25;2.17;;;8.20;99.90;;;;;;5039503;28;20585;-80
2023/12/19 12:09:05;;;;;;;23.55;1.98;;;8.30;99.90;;;;;;5039964;28;20165;-80
2023/12/19 12:11:52;;;;;;;26.45;2.03;;;8.20;99.90;;;;;;5040068;28;20200;-80
2023/12/19 12:14:17;;;;;;;25.17;2.17;;;8.20;99.90;;;;;;5039293;28;20189;-80
2023/12/19 12:16:43;;;;;;;22.87;2.30;;;8.20;99.90;;;;;;5058587;28;20161;-80
2023/12/19 12:19:18;;;;;;;29.03;2.47;;;8.20;99.90;;;;;;5057238;28;20169;-80
2023/12/19 12:21:52;;;;;;;25.67;3.40;;;8.20;99.90;;;;;;5039164;28;20172;-79
2023/12/19 12:24:27;;;;;;;25.38;2.45;;;8.20;99.90;;;;;;5038929;28;20250;-78
2023/12/19 12:27:09;;;;;;;22.38;2.20;;;8.20;99.90;;;;;;5057535;28;20176;-80
2023/12/19 12:29:38;;;;;;;24.55;2.30;;;8.10;99.90;;;;;;5057866;28;20149;-80
2023/12/19 12:32:05;;;;;;;25.02;2.15;;;8.20;99.90;;;;;;5057910;28;20196;-80
2023/12/19 12:34:32;;;;;;;25.17;1.90;;;8.20;99.90;;;;;;5057438;28;20658;-80
2023/12/19 12:36:58;;;;;;;24.42;2.30;;;8.20;99.90;;;;;;5039017;28;20288;-80
2023/12/19 12:39:24;;;;;;;24.77;2.40;;;8.30;99.90;;;;;;5039115;28;20196;-79
2023/12/19 12:41:50;;;;;;;23.70;2.00;;;8.30;99.90;;;;;;5038685;28;20165;-79
2023/12/19 12:44:16;;;;;;;28.20;2.17;;;8.30;99.90;;;;;;5039775;28;20216;-80
2023/12/19 12:46:47;;;;;;;27.40;2.63;;;8.30;99.90;;;;;;5056412;28;20435;-80
2023/12/19 12:49:18;;;;;;;30.00;2.85;;;8.30;99.90;;;;;;5056548;28;20494;-80